sensor_id;sensor_type;location;lat;lon;timestamp;pressure;altitude;pressure_sealevel;temperature;humidity
47809;BME280;33573;38.790;-77.084;2023-11-19T00:02:24;100986.59;;;21.35;28.00
47809;BME280;33573;38.790;-77.084;2023-11-19T00:04:50;100988.90;;;21.33;27.99
47809;BME280;33573;38.790;-77.084;2023-11-19T00:07:15;100988.14;;;20.47;28.80
47809;BME280;33573;38.790;-77.084;2023-11-19T00:09:41;100995.63;;;21.26;27.86
47809;BME280;33573;38.790;-77.084;2023-11-19T00:12:07;100998.76;;;20.37;28.88
47809;BME280;33573;38.790;-77.084;2023-11-19T00:14:31;100998.27;;;20.66;28.83
47809;BME280;33573;38.790;-77.084;2023-11-19T00:16:57;101006.72;;;20.45;28.52
47809;BME280;33573;38.790;-77.084;2023-11-19T00:19:22;101013.48;;;20.15;29.11
47809;BME280;33573;38.790;-77.084;2023-11-19T00:21:48;101020.62;;;20.30;28.85
47809;BME280;33573;38.790;-77.084;2023-11-19T00:24:13;101025.46;;;20.76;28.49
47809;BME280;33573;38.790;-77.084;2023-11-19T00:26:39;101023.28;;;20.60;28.58
47809;BME280;33573;38.790;-77.084;2023-11-19T00:29:04;101021.15;;;20.10;29.05
47809;BME280;33573;38.790;-77.084;2023-11-19T00:31:29;101018.78;;;20.39;29.04
47809;BME280;33573;38.790;-77.084;2023-11-19T00:33:55;101022.89;;;20.24;28.90
47809;BME280;33573;38.790;-77.084;2023-11-19T00:36:20;101022.33;;;20.60;28.72
47809;BME280;33573;38.790;-77.084;2023-11-19T00:38:46;101027.96;;;20.29;28.81
47809;BME280;33573;38.790;-77.084;2023-11-19T00:41:11;101027.01;;;20.21;29.06
47809;BME280;33573;38.790;-77.084;2023-11-19T00:43:36;101028.13;;;20.17;28.94
47809;BME280;33573;38.790;-77.084;2023-11-19T00:46:02;101031.81;;;20.23;28.84
47809;BME280;33573;38.790;-77.084;2023-11-19T00:48:28;101029.28;;;20.30;28.75
47809;BME280;33573;38.790;-77.084;2023-11-19T00:50:53;101034.97;;;20.61;28.42
47809;BME280;33573;38.790;-77.084;2023-11-19T00:53:18;101034.82;;;20.10;28.62
47809;BME280;33573;38.790;-77.084;2023-11-19T00:55:44;101039.06;;;20.32;28.64
47809;BME280;33573;38.790;-77.084;2023-11-19T00:58:09;101043.30;;;20.35;28.67
47809;BME280;33573;38.790;-77.084;2023-11-19T01:00:34;101043.31;;;20.08;28.89
47809;BME280;33573;38.790;-77.084;2023-11-19T01:03:00;101040.84;;;19.96;28.96
47809;BME280;33573;38.790;-77.084;2023-11-19T01:05:25;101040.38;;;20.03;28.88
47809;BME280;33573;38.790;-77.084;2023-11-19T01:07:51;101035.59;;;20.86;28.20
47809;BME280;33573;38.790;-77.084;2023-11-19T01:10:16;101031.28;;;20.20;28.68
47809;BME280;33573;38.790;-77.084;2023-11-19T01:12:41;101031.96;;;20.34;28.54
47809;BME280;33573;38.790;-77.084;2023-11-19T01:15:08;101030.61;;;19.58;28.98
47809;BME280;33573;38.790;-77.084;2023-11-19T01:17:32;101026.92;;;20.21;28.81
47809;BME280;33573;38.790;-77.084;2023-11-19T01:19:58;101022.57;;;20.56;28.25
47809;BME280;33573;38.790;-77.084;2023-11-19T01:22:23;101017.91;;;20.78;27.93
47809;BME280;33573;38.790;-77.084;2023-11-19T01:24:49;101019.23;;;19.86;28.87
47809;BME280;33573;38.790;-77.084;2023-11-19T01:27:14;101020.81;;;19.72;29.02
47809;BME280;33573;38.790;-77.084;2023-11-19T01:29:39;101024.09;;;20.11;28.52
47809;BME280;33573;38.790;-77.084;2023-11-19T01:32:05;101028.41;;;20.17;28.69
47809;BME280;33573;38.790;-77.084;2023-11-19T01:34:30;101033.11;;;20.69;28.30
47809;BME280;33573;38.790;-77.084;2023-11-19T01:36:56;101030.59;;;19.90;28.39
47809;BME280;33573;38.790;-77.084;2023-11-19T01:39:21;101036.52;;;20.75;27.56
47809;BME280;33573;38.790;-77.084;2023-11-19T01:41:47;101035.75;;;21.04;27.47
47809;BME280;33573;38.790;-77.084;2023-11-19T01:44:12;101038.98;;;20.35;28.31
47809;BME280;33573;38.790;-77.084;2023-11-19T01:46:37;101043.57;;;19.52;29.21
47809;BME280;33573;38.790;-77.084;2023-11-19T01:49:03;101044.86;;;19.23;29.48
47809;BME280;33573;38.790;-77.084;2023-11-19T01:51:29;101051.49;;;19.18;29.56
47809;BME280;33573;38.790;-77.084;2023-11-19T01:53:54;101054.76;;;18.70;29.79
47809;BME280;33573;38.790;-77.084;2023-11-19T01:56:20;101060.42;;;18.99;29.71
47809;BME280;33573;38.790;-77.084;2023-11-19T01:58:45;101058.04;;;19.09;29.92
47809;BME280;33573;38.790;-77.084;2023-11-19T02:01:10;101058.27;;;18.62;30.16
47809;BME280;33573;38.790;-77.084;2023-11-19T02:03:35;101057.16;;;18.85;30.14
47809;BME280;33573;38.790;-77.084;2023-11-19T02:06:01;101059.61;;;18.97;29.95
47809;BME280;33573;38.790;-77.084;2023-11-19T02:08:26;101057.18;;;18.70;29.91
47809;BME280;33573;38.790;-77.084;2023-11-19T02:10:52;101058.48;;;19.95;28.44
47809;BME280;33573;38.790;-77.084;2023-11-19T02:13:17;101064.97;;;20.26;28.05
47809;BME280;33573;38.790;-77.084;2023-11-19T02:15:43;101067.92;;;20.65;27.62
47809;BME280;33573;38.790;-77.084;2023-11-19T02:18:17;101077.29;;;20.60;27.62
47809;BME280;33573;38.790;-77.084;2023-11-19T02:20:35;101085.00;;;20.04;27.87
47809;BME280;33573;38.790;-77.084;2023-11-19T02:22:59;101093.87;;;19.40;29.09
47809;BME280;33573;38.790;-77.084;2023-11-19T02:25:30;101102.14;;;19.47;29.17
47809;BME280;33573;38.790;-77.084;2023-11-19T02:27:53;101100.11;;;19.05;29.70
47809;BME280;33573;38.790;-77.084;2023-11-19T02:30:15;101100.43;;;18.72;30.00
47809;BME280;33573;38.790;-77.084;2023-11-19T02:32:42;101098.22;;;18.89;29.87
47809;BME280;33573;38.790;-77.084;2023-11-19T02:35:07;101096.98;;;18.65;30.13
47809;BME280;33573;38.790;-77.084;2023-11-19T02:37:31;101092.34;;;19.59;28.42
47809;BME280;33573;38.790;-77.084;2023-11-19T02:39:57;101089.80;;;19.66;28.17
47809;BME280;33573;38.790;-77.084;2023-11-19T02:42:22;101086.83;;;20.24;27.91
47809;BME280;33573;38.790;-77.084;2023-11-19T02:44:48;101082.75;;;20.00;27.68
47809;BME280;33573;38.790;-77.084;2023-11-19T02:47:13;101080.81;;;20.05;27.72
47809;BME280;33573;38.790;-77.084;2023-11-19T02:49:38;101079.98;;;20.27;27.62
47809;BME280;33573;38.790;-77.084;2023-11-19T02:52:05;101078.19;;;20.41;27.14
47809;BME280;33573;38.790;-77.084;2023-11-19T02:54:29;101079.38;;;20.05;27.50
47809;BME280;33573;38.790;-77.084;2023-11-19T02:56:55;101077.25;;;20.02;27.57
47809;BME280;33573;38.790;-77.084;2023-11-19T02:59:20;101078.89;;;20.12;27.30
47809;BME280;33573;38.790;-77.084;2023-11-19T03:01:45;101078.87;;;20.18;27.45
47809;BME280;33573;38.790;-77.084;2023-11-19T03:04:11;101080.77;;;19.66;27.57
47809;BME280;33573;38.790;-77.084;2023-11-19T03:06:36;101087.86;;;20.99;26.54
47809;BME280;33573;38.790;-77.084;2023-11-19T03:09:02;101094.09;;;20.15;27.69
47809;BME280;33573;38.790;-77.084;2023-11-19T03:11:27;101091.43;;;19.19;28.74
47809;BME280;33573;38.790;-77.084;2023-11-19T03:13:53;101092.58;;;18.87;28.90
47809;BME280;33573;38.790;-77.084;2023-11-19T03:16:18;101087.55;;;18.95;29.28
47809;BME280;33573;38.790;-77.084;2023-11-19T03:18:43;101088.08;;;19.33;29.01
47809;BME280;33573;38.790;-77.084;2023-11-19T03:21:09;101087.77;;;19.03;29.26
47809;BME280;33573;38.790;-77.084;2023-11-19T03:23:34;101089.82;;;18.54;29.79
47809;BME280;33573;38.790;-77.084;2023-11-19T03:26:00;101091.41;;;18.59;29.92
47809;BME280;33573;38.790;-77.084;2023-11-19T03:28:25;101095.22;;;19.15;29.30
47809;BME280;33573;38.790;-77.084;2023-11-19T03:30:51;101096.41;;;18.45;29.69
47809;BME280;33573;38.790;-77.084;2023-11-19T03:33:16;101098.41;;;18.61;29.62
47809;BME280;33573;38.790;-77.084;2023-11-19T03:35:42;101104.12;;;18.61;29.84
47809;BME280;33573;38.790;-77.084;2023-11-19T03:38:07;101106.03;;;18.54;29.90
47809;BME280;33573;38.790;-77.084;2023-11-19T03:40:32;101103.51;;;18.45;30.00
47809;BME280;33573;38.790;-77.084;2023-11-19T03:42:58;101094.50;;;18.84;29.64
47809;BME280;33573;38.790;-77.084;2023-11-19T03:45:23;101094.63;;;19.12;29.39
47809;BME280;33573;38.790;-77.084;2023-11-19T03:47:49;101092.02;;;19.40;29.05
47809;BME280;33573;38.790;-77.084;2023-11-19T03:50:14;101088.13;;;18.60;29.77
47809;BME280;33573;38.790;-77.084;2023-11-19T03:52:39;101093.41;;;18.49;29.95
47809;BME280;33573;38.790;-77.084;2023-11-19T03:55:05;101093.86;;;18.73;29.63
47809;BME280;33573;38.790;-77.084;2023-11-19T03:57:31;101096.21;;;18.42;29.98
47809;BME280;33573;38.790;-77.084;2023-11-19T03:59:56;101093.40;;;18.23;30.19
47809;BME280;33573;38.790;-77.084;2023-11-19T04:02:21;101091.14;;;18.46;29.86
47809;BME280;33573;38.790;-77.084;2023-11-19T04:04:46;101093.18;;;18.97;28.86
47809;BME280;33573;38.790;-77.084;2023-11-19T04:07:12;101096.22;;;18.17;29.83
47809;BME280;33573;38.790;-77.084;2023-11-19T04:09:37;101096.75;;;18.12;29.95
47809;BME280;33573;38.790;-77.084;2023-11-19T04:12:03;101104.34;;;17.87;30.24
47809;BME280;33573;38.790;-77.084;2023-11-19T04:14:28;101112.46;;;17.77;30.23
47809;BME280;33573;38.790;-77.084;2023-11-19T04:16:54;101118.13;;;17.92;30.44
47809;BME280;33573;38.790;-77.084;2023-11-19T04:19:19;101123.48;;;18.11;30.25
47809;BME280;33573;38.790;-77.084;2023-11-19T04:21:44;101126.41;;;17.66;30.24
47809;BME280;33573;38.790;-77.084;2023-11-19T04:24:10;101128.22;;;17.81;30.38
47809;BME280;33573;38.790;-77.084;2023-11-19T04:26:35;101129.09;;;18.20;30.10
47809;BME280;33573;38.790;-77.084;2023-11-19T04:29:01;101132.97;;;17.57;30.32
47809;BME280;33573;38.790;-77.084;2023-11-19T04:31:29;101133.22;;;17.72;30.31
47809;BME280;33573;38.790;-77.084;2023-11-19T04:33:52;101136.13;;;17.58;30.15
47809;BME280;33573;38.790;-77.084;2023-11-19T04:36:19;101135.04;;;17.78;30.29
47809;BME280;33573;38.790;-77.084;2023-11-19T04:38:42;101137.87;;;18.00;30.31
47809;BME280;33573;38.790;-77.084;2023-11-19T04:41:08;101137.91;;;17.94;30.02
47809;BME280;33573;38.790;-77.084;2023-11-19T04:43:33;101142.39;;;17.56;30.15
47809;BME280;33573;38.790;-77.084;2023-11-19T04:45:59;101144.35;;;17.73;30.08
47809;BME280;33573;38.790;-77.084;2023-11-19T04:48:24;101148.74;;;17.96;29.99
47809;BME280;33573;38.790;-77.084;2023-11-19T04:50:50;101150.29;;;17.62;30.13
47809;BME280;33573;38.790;-77.084;2023-11-19T04:53:15;101154.94;;;17.89;30.10
47809;BME280;33573;38.790;-77.084;2023-11-19T04:55:41;101154.14;;;17.94;30.07
47809;BME280;33573;38.790;-77.084;2023-11-19T04:58:06;101155.83;;;17.27;30.21
47809;BME280;33573;38.790;-77.084;2023-11-19T05:00:32;101158.93;;;17.71;30.22
47809;BME280;33573;38.790;-77.084;2023-11-19T05:02:57;101160.99;;;17.76;29.84
47809;BME280;33573;38.790;-77.084;2023-11-19T05:05:22;101162.10;;;17.61;29.96
47809;BME280;33573;38.790;-77.084;2023-11-19T05:07:48;101167.54;;;17.43;29.90
47809;BME280;33573;38.790;-77.084;2023-11-19T05:10:13;101170.46;;;17.88;29.91
47809;BME280;33573;38.790;-77.084;2023-11-19T05:12:38;101178.79;;;17.29;30.02
47809;BME280;33573;38.790;-77.084;2023-11-19T05:15:05;101181.42;;;17.68;29.86
47809;BME280;33573;38.790;-77.084;2023-11-19T05:17:29;101184.35;;;17.75;29.98
47809;BME280;33573;38.790;-77.084;2023-11-19T05:19:55;101189.53;;;17.89;29.82
47809;BME280;33573;38.790;-77.084;2023-11-19T05:22:20;101192.73;;;17.64;29.81
47809;BME280;33573;38.790;-77.084;2023-11-19T05:24:46;101195.28;;;17.57;29.82
47809;BME280;33573;38.790;-77.084;2023-11-19T05:27:11;101204.01;;;17.83;29.86
47809;BME280;33573;38.790;-77.084;2023-11-19T05:29:36;101202.97;;;17.62;29.99
47809;BME280;33573;38.790;-77.084;2023-11-19T05:32:02;101206.79;;;17.68;29.93
47809;BME280;33573;38.790;-77.084;2023-11-19T05:34:28;101209.42;;;17.88;29.59
47809;BME280;33573;38.790;-77.084;2023-11-19T05:36:53;101211.01;;;17.71;29.73
47809;BME280;33573;38.790;-77.084;2023-11-19T05:39:18;101209.88;;;18.10;29.64
47809;BME280;33573;38.790;-77.084;2023-11-19T05:41:43;101208.89;;;17.23;29.75
47809;BME280;33573;38.790;-77.084;2023-11-19T05:44:09;101211.89;;;17.53;29.35
47809;BME280;33573;38.790;-77.084;2023-11-19T05:46:34;101213.12;;;17.86;29.40
47809;BME280;33573;38.790;-77.084;2023-11-19T05:49:00;101211.06;;;17.75;29.52
47809;BME280;33573;38.790;-77.084;2023-11-19T05:51:25;101209.21;;;17.76;29.48
47809;BME280;33573;38.790;-77.084;2023-11-19T05:53:51;101209.19;;;17.75;29.45
47809;BME280;33573;38.790;-77.084;2023-11-19T05:56:16;101209.91;;;17.86;29.34
47809;BME280;33573;38.790;-77.084;2023-11-19T05:58:41;101212.71;;;17.84;29.25
47809;BME280;33573;38.790;-77.084;2023-11-19T06:01:07;101210.50;;;17.78;29.23
47809;BME280;33573;38.790;-77.084;2023-11-19T06:03:32;101212.55;;;17.78;29.26
47809;BME280;33573;38.790;-77.084;2023-11-19T06:05:58;101212.75;;;18.06;28.95
47809;BME280;33573;38.790;-77.084;2023-11-19T06:08:23;101210.80;;;17.47;29.24
47809;BME280;33573;38.790;-77.084;2023-11-19T06:10:49;101211.89;;;17.65;29.26
47809;BME280;33573;38.790;-77.084;2023-11-19T06:13:14;101215.24;;;17.67;29.29
47809;BME280;33573;38.790;-77.084;2023-11-19T06:15:40;101222.75;;;17.60;29.32
47809;BME280;33573;38.790;-77.084;2023-11-19T06:18:05;101230.03;;;17.58;29.26
47809;BME280;33573;38.790;-77.084;2023-11-19T06:20:31;101230.82;;;17.63;29.17
47809;BME280;33573;38.790;-77.084;2023-11-19T06:22:56;101231.57;;;17.37;29.22
47809;BME280;33573;38.790;-77.084;2023-11-19T06:25:21;101231.55;;;17.52;29.34
47809;BME280;33573;38.790;-77.084;2023-11-19T06:27:47;101228.74;;;17.47;29.34
47809;BME280;33573;38.790;-77.084;2023-11-19T06:30:13;101226.05;;;17.94;29.08
47809;BME280;33573;38.790;-77.084;2023-11-19T06:32:38;101225.50;;;17.29;29.45
47809;BME280;33573;38.790;-77.084;2023-11-19T06:35:03;101228.28;;;17.45;29.32
47809;BME280;33573;38.790;-77.084;2023-11-19T06:37:28;101224.04;;;17.46;29.24
47809;BME280;33573;38.790;-77.084;2023-11-19T06:39:54;101221.47;;;17.41;29.48
47809;BME280;33573;38.790;-77.084;2023-11-19T06:42:19;101221.43;;;16.99;29.58
47809;BME280;33573;38.790;-77.084;2023-11-19T06:44:45;101222.10;;;17.38;29.26
47809;BME280;33573;38.790;-77.084;2023-11-19T06:47:10;101223.85;;;17.21;29.76
47809;BME280;33573;38.790;-77.084;2023-11-19T06:49:35;101223.77;;;17.36;29.33
47809;BME280;33573;38.790;-77.084;2023-11-19T06:52:01;101221.16;;;17.54;29.36
47809;BME280;33573;38.790;-77.084;2023-11-19T06:54:26;101222.68;;;17.30;29.49
47809;BME280;33573;38.790;-77.084;2023-11-19T06:56:52;101222.73;;;17.29;29.46
47809;BME280;33573;38.790;-77.084;2023-11-19T06:59:17;101221.30;;;17.08;29.48
47809;BME280;33573;38.790;-77.084;2023-11-19T07:01:43;101218.44;;;17.21;29.40
47809;BME280;33573;38.790;-77.084;2023-11-19T07:04:08;101222.65;;;17.25;29.26
47809;BME280;33573;38.790;-77.084;2023-11-19T07:06:33;101222.81;;;17.33;29.10
47809;BME280;33573;38.790;-77.084;2023-11-19T07:08:59;101224.21;;;17.48;29.21
47809;BME280;33573;38.790;-77.084;2023-11-19T07:11:24;101225.63;;;17.16;29.35
47809;BME280;33573;38.790;-77.084;2023-11-19T07:13:50;101227.01;;;17.23;29.19
47809;BME280;33573;38.790;-77.084;2023-11-19T07:16:15;101230.79;;;17.12;29.37
47809;BME280;33573;38.790;-77.084;2023-11-19T07:18:41;101236.98;;;17.34;29.34
47809;BME280;33573;38.790;-77.084;2023-11-19T07:21:06;101238.07;;;17.27;29.54
47809;BME280;33573;38.790;-77.084;2023-11-19T07:23:31;101236.77;;;16.83;29.68
47809;BME280;33573;38.790;-77.084;2023-11-19T07:25:57;101240.59;;;17.05;29.34
47809;BME280;33573;38.790;-77.084;2023-11-19T07:28:22;101236.45;;;16.79;29.69
47809;BME280;33573;38.790;-77.084;2023-11-19T07:30:48;101236.48;;;17.16;29.70
47809;BME280;33573;38.790;-77.084;2023-11-19T07:33:13;101241.39;;;17.05;29.49
47809;BME280;33573;38.790;-77.084;2023-11-19T07:35:39;101245.66;;;16.91;29.43
47809;BME280;33573;38.790;-77.084;2023-11-19T07:38:04;101242.09;;;17.02;29.49
47809;BME280;33573;38.790;-77.084;2023-11-19T07:40:30;101244.33;;;16.72;29.62
47809;BME280;33573;38.790;-77.084;2023-11-19T07:42:55;101243.01;;;17.19;29.22
47809;BME280;33573;38.790;-77.084;2023-11-19T07:45:20;101244.53;;;17.42;29.22
47809;BME280;33573;38.790;-77.084;2023-11-19T07:47:46;101248.01;;;16.75;29.35
47809;BME280;33573;38.790;-77.084;2023-11-19T07:50:11;101250.41;;;17.09;29.34
47809;BME280;33573;38.790;-77.084;2023-11-19T07:52:37;101250.31;;;16.80;29.56
47809;BME280;33573;38.790;-77.084;2023-11-19T07:55:03;101248.75;;;16.88;29.41
47809;BME280;33573;38.790;-77.084;2023-11-19T07:57:28;101248.18;;;16.85;29.54
47809;BME280;33573;38.790;-77.084;2023-11-19T07:59:53;101250.03;;;16.78;29.57
47809;BME280;33573;38.790;-77.084;2023-11-19T08:02:19;101245.54;;;17.06;29.55
47809;BME280;33573;38.790;-77.084;2023-11-19T08:04:44;101245.14;;;16.68;29.58
47809;BME280;33573;38.790;-77.084;2023-11-19T08:07:09;101239.03;;;16.76;29.62
47809;BME280;33573;38.790;-77.084;2023-11-19T08:09:35;101241.32;;;16.79;29.73
47809;BME280;33573;38.790;-77.084;2023-11-19T08:12:00;101239.67;;;17.02;29.41
47809;BME280;33573;38.790;-77.084;2023-11-19T08:14:26;101239.00;;;16.55;29.70
47809;BME280;33573;38.790;-77.084;2023-11-19T08:16:51;101240.41;;;16.56;29.60
47809;BME280;33573;38.790;-77.084;2023-11-19T08:19:17;101242.21;;;16.98;29.51
47809;BME280;33573;38.790;-77.084;2023-11-19T08:21:42;101242.31;;;16.76;29.40
47809;BME280;33573;38.790;-77.084;2023-11-19T08:24:08;101240.76;;;16.57;29.82
47809;BME280;33573;38.790;-77.084;2023-11-19T08:26:33;101237.59;;;16.49;29.70
47809;BME280;33573;38.790;-77.084;2023-11-19T08:28:58;101237.05;;;16.80;29.61
47809;BME280;33573;38.790;-77.084;2023-11-19T08:31:25;101238.43;;;16.54;29.93
47809;BME280;33573;38.790;-77.084;2023-11-19T08:33:49;101234.89;;;16.81;29.58
47809;BME280;33573;38.790;-77.084;2023-11-19T08:36:16;101234.99;;;16.82;29.57
47809;BME280;33573;38.790;-77.084;2023-11-19T08:38:40;101237.62;;;16.53;29.64
47809;BME280;33573;38.790;-77.084;2023-11-19T08:41:06;101240.11;;;16.66;29.76
47809;BME280;33573;38.790;-77.084;2023-11-19T08:43:31;101238.69;;;15.90;30.02
47809;BME280;33573;38.790;-77.084;2023-11-19T08:45:57;101238.25;;;16.36;29.71
47809;BME280;33573;38.790;-77.084;2023-11-19T08:48:22;101237.62;;;16.33;29.72
47809;BME280;33573;38.790;-77.084;2023-11-19T08:50:47;101235.44;;;16.67;29.62
47809;BME280;33573;38.790;-77.084;2023-11-19T08:53:13;101237.20;;;16.52;29.80
47809;BME280;33573;38.790;-77.084;2023-11-19T08:55:38;101238.96;;;16.33;29.67
47809;BME280;33573;38.790;-77.084;2023-11-19T08:58:04;101237.46;;;16.45;29.93
47809;BME280;33573;38.790;-77.084;2023-11-19T09:00:29;101236.55;;;16.20;29.96
47809;BME280;33573;38.790;-77.084;2023-11-19T09:02:55;101236.39;;;16.51;29.81
47809;BME280;33573;38.790;-77.084;2023-11-19T09:05:20;101232.92;;;16.27;29.90
47809;BME280;33573;38.790;-77.084;2023-11-19T09:07:46;101235.22;;;16.16;30.13
47809;BME280;33573;38.790;-77.084;2023-11-19T09:10:11;101237.34;;;16.49;29.73
47809;BME280;33573;38.790;-77.084;2023-11-19T09:12:37;101238.73;;;16.65;29.63
47809;BME280;33573;38.790;-77.084;2023-11-19T09:15:02;101235.74;;;16.32;29.88
47809;BME280;33573;38.790;-77.084;2023-11-19T09:17:27;101234.26;;;16.26;30.04
47809;BME280;33573;38.790;-77.084;2023-11-19T09:19:53;101233.92;;;16.44;29.67
47809;BME280;33573;38.790;-77.084;2023-11-19T09:22:18;101235.60;;;16.87;29.80
47809;BME280;33573;38.790;-77.084;2023-11-19T09:24:44;101235.24;;;16.16;30.05
47809;BME280;33573;38.790;-77.084;2023-11-19T09:27:09;101236.12;;;16.25;29.87
47809;BME280;33573;38.790;-77.084;2023-11-19T09:29:35;101236.93;;;16.07;29.98
47809;BME280;33573;38.790;-77.084;2023-11-19T09:32:00;101236.69;;;16.40;29.88
47809;BME280;33573;38.790;-77.084;2023-11-19T09:34:25;101239.21;;;16.27;29.82
47809;BME280;33573;38.790;-77.084;2023-11-19T09:36:51;101242.87;;;16.21;29.83
47809;BME280;33573;38.790;-77.084;2023-11-19T09:39:16;101245.06;;;16.04;30.06
47809;BME280;33573;38.790;-77.084;2023-11-19T09:41:42;101244.97;;;16.07;29.90
47809;BME280;33573;38.790;-77.084;2023-11-19T09:44:08;101244.52;;;16.02;29.95
47809;BME280;33573;38.790;-77.084;2023-11-19T09:46:33;101249.13;;;16.02;29.98
47809;BME280;33573;38.790;-77.084;2023-11-19T09:48:58;101250.59;;;15.96;30.01
47809;BME280;33573;38.790;-77.084;2023-11-19T09:51:24;101249.73;;;16.38;29.77
47809;BME280;33573;38.790;-77.084;2023-11-19T09:53:49;101252.94;;;16.19;29.82
47809;BME280;33573;38.790;-77.084;2023-11-19T09:56:15;101249.70;;;16.06;29.88
47809;BME280;33573;38.790;-77.084;2023-11-19T09:58:40;101253.79;;;16.04;29.91
47809;BME280;33573;38.790;-77.084;2023-11-19T10:01:06;101251.14;;;15.94;30.08
47809;BME280;33573;38.790;-77.084;2023-11-19T10:03:33;101253.62;;;15.79;30.33
47809;BME280;33573;38.790;-77.084;2023-11-19T10:06:02;101256.92;;;15.86;30.03
47809;BME280;33573;38.790;-77.084;2023-11-19T10:08:22;101261.53;;;15.91;30.07
47809;BME280;33573;38.790;-77.084;2023-11-19T10:10:48;101263.84;;;16.15;29.68
47809;BME280;33573;38.790;-77.084;2023-11-19T10:13:13;101266.77;;;15.80;30.05
47809;BME280;33573;38.790;-77.084;2023-11-19T10:15:38;101269.47;;;15.91;29.96
47809;BME280;33573;38.790;-77.084;2023-11-19T10:18:04;101270.10;;;16.08;30.06
47809;BME280;33573;38.790;-77.084;2023-11-19T10:20:29;101274.19;;;15.79;30.15
47809;BME280;33573;38.790;-77.084;2023-11-19T10:22:55;101276.16;;;15.96;30.09
47809;BME280;33573;38.790;-77.084;2023-11-19T10:25:24;101272.97;;;16.16;30.02
47809;BME280;33573;38.790;-77.084;2023-11-19T10:27:45;101273.70;;;16.36;29.83
47809;BME280;33573;38.790;-77.084;2023-11-19T10:30:12;101280.39;;;16.71;29.53
47809;BME280;33573;38.790;-77.084;2023-11-19T10:32:36;101281.57;;;16.62;29.75
47809;BME280;33573;38.790;-77.084;2023-11-19T10:35:05;101285.43;;;16.68;29.79
47809;BME280;33573;38.790;-77.084;2023-11-19T10:37:29;101284.23;;;16.65;29.93
47809;BME280;33573;38.790;-77.084;2023-11-19T10:39:53;101283.01;;;16.87;29.78
47809;BME280;33573;38.790;-77.084;2023-11-19T10:42:18;101283.61;;;16.66;30.11
47809;BME280;33573;38.790;-77.084;2023-11-19T10:44:44;101283.42;;;16.46;30.25
47809;BME280;33573;38.790;-77.084;2023-11-19T10:47:09;101285.35;;;16.89;30.08
47809;BME280;33573;38.790;-77.084;2023-11-19T10:49:34;101286.71;;;16.77;30.30
47809;BME280;33573;38.790;-77.084;2023-11-19T10:52:00;101289.61;;;16.74;30.41
47809;BME280;33573;38.790;-77.084;2023-11-19T10:54:26;101290.12;;;17.02;30.17
47809;BME280;33573;38.790;-77.084;2023-11-19T10:56:54;101290.48;;;17.15;29.98
47809;BME280;33573;38.790;-77.084;2023-11-19T10:59:17;101297.42;;;17.04;30.19
47809;BME280;33573;38.790;-77.084;2023-11-19T11:01:45;101300.13;;;16.78;30.16
47809;BME280;33573;38.790;-77.084;2023-11-19T11:04:12;101300.20;;;16.77;30.24
47809;BME280;33573;38.790;-77.084;2023-11-19T11:06:34;101296.29;;;16.80;30.61
47809;BME280;33573;38.790;-77.084;2023-11-19T11:08:58;101293.22;;;16.57;30.69
47809;BME280;33573;38.790;-77.084;2023-11-19T11:11:24;101287.86;;;16.71;30.59
47809;BME280;33573;38.790;-77.084;2023-11-19T11:13:50;101290.84;;;16.78;30.60
47809;BME280;33573;38.790;-77.084;2023-11-19T11:16:20;101290.27;;;17.04;30.53
47809;BME280;33573;38.790;-77.084;2023-11-19T11:18:40;101291.28;;;16.91;30.65
47809;BME280;33573;38.790;-77.084;2023-11-19T11:21:08;101294.19;;;16.72;30.65
47809;BME280;33573;38.790;-77.084;2023-11-19T11:26:04;101292.84;;;16.23;31.08
47809;BME280;33573;38.790;-77.084;2023-11-19T11:28:32;101298.17;;;17.20;30.55
47809;BME280;33573;38.790;-77.084;2023-11-19T11:31:03;101299.95;;;16.85;30.77
47809;BME280;33573;38.790;-77.084;2023-11-19T11:33:25;101304.43;;;16.87;30.72
47809;BME280;33573;38.790;-77.084;2023-11-19T11:35:48;101303.35;;;16.74;30.91
47809;BME280;33573;38.790;-77.084;2023-11-19T11:38:07;101302.22;;;16.99;30.82
47809;BME280;33573;38.790;-77.084;2023-11-19T11:40:29;101305.82;;;16.68;30.96
47809;BME280;33573;38.790;-77.084;2023-11-19T11:42:54;101305.91;;;17.01;30.97
47809;BME280;33573;38.790;-77.084;2023-11-19T11:50:12;101319.51;;;17.02;31.07
47809;BME280;33573;38.790;-77.084;2023-11-19T11:55:05;101325.05;;;16.94;31.21
47809;BME280;33573;38.790;-77.084;2023-11-19T11:57:36;101324.49;;;16.65;31.23
47809;BME280;33573;38.790;-77.084;2023-11-19T11:59:52;101326.00;;;16.46;31.41
47809;BME280;33573;38.790;-77.084;2023-11-19T12:02:19;101332.79;;;16.61;31.13
47809;BME280;33573;38.790;-77.084;2023-11-19T12:04:46;101333.75;;;16.48;31.40
47809;BME280;33573;38.790;-77.084;2023-11-19T12:07:13;101341.26;;;17.16;31.02
47809;BME280;33573;38.790;-77.084;2023-11-19T12:09:34;101348.80;;;16.73;31.20
47809;BME280;33573;38.790;-77.084;2023-11-19T12:12:11;101356.09;;;16.71;31.32
47809;BME280;33573;38.790;-77.084;2023-11-19T12:16:51;101360.71;;;16.42;31.38
47809;BME280;33573;38.790;-77.084;2023-11-19T12:19:17;101364.38;;;16.38;31.32
47809;BME280;33573;38.790;-77.084;2023-11-19T12:21:41;101364.73;;;16.46;31.58
47809;BME280;33573;38.790;-77.084;2023-11-19T12:24:08;101370.26;;;16.72;31.32
47809;BME280;33573;38.790;-77.084;2023-11-19T12:26:34;101373.79;;;16.92;31.13
47809;BME280;33573;38.790;-77.084;2023-11-19T12:28:58;101377.92;;;16.80;31.34
47809;BME280;33573;38.790;-77.084;2023-11-19T12:31:23;101383.70;;;16.56;31.63
47809;BME280;33573;38.790;-77.084;2023-11-19T12:33:50;101385.08;;;16.66;31.49